sensor_id;sensor_type;location;lat;lon;timestamp;P1;durP1;ratioP1;P2;durP2;ratioP2
74102;SDS011;62853;46.166;3.640;2023-06-10T00:00:48;16.17;;;8.88;;
74102;SDS011;62853;46.166;3.640;2023-06-10T00:03:15;9.43;;;8.23;;
74102;SDS011;62853;46.166;3.640;2023-06-10T00:05:41;9.73;;;7.90;;
74102;SDS011;62853;46.166;3.640;2023-06-10T00:08:06;9.50;;;8.60;;
74102;SDS011;62853;46.166;3.640;2023-06-10T00:10:36;11.02;;;8.45;;
74102;SDS011;62853;46.166;3.640;2023-06-10T00:13:02;9.73;;;8.60;;
74102;SDS011;62853;46.166;3.640;2023-06-10T00:15:29;9.52;;;8.65;;
74102;SDS011;62853;46.166;3.640;2023-06-10T00:17:55;11.02;;;8.50;;
74102;SDS011;62853;46.166;3.640;2023-06-10T00:20:20;10.75;;;8.05;;
74102;SDS011;62853;46.166;3.640;2023-06-10T00:22:48;9.05;;;8.05;;
74102;SDS011;62853;46.166;3.640;2023-06-10T00:25:14;10.48;;;8.68;;
74102;SDS011;62853;46.166;3.640;2023-06-10T00:27:39;10.20;;;8.65;;
74102;SDS011;62853;46.166;3.640;2023-06-10T00:30:05;10.15;;;8.70;;
74102;SDS011;62853;46.166;3.640;2023-06-10T00:32:35;10.07;;;8.32;;
74102;SDS011;62853;46.166;3.640;2023-06-10T00:35:01;11.52;;;8.32;;
74102;SDS011;62853;46.166;3.640;2023-06-10T00:37:27;9.07;;;8.20;;
74102;SDS011;62853;46.166;3.640;2023-06-10T00:39:53;9.70;;;8.80;;
74102;SDS011;62853;46.166;3.640;2023-06-10T00:42:19;9.70;;;8.75;;
74102;SDS011;62853;46.166;3.640;2023-06-10T00:44:44;10.73;;;9.00;;
74102;SDS011;62853;46.166;3.640;2023-06-10T00:47:10;11.25;;;8.88;;
74102;SDS011;62853;46.166;3.640;2023-06-10T00:49:35;10.60;;;8.85;;
74102;SDS011;62853;46.166;3.640;2023-06-10T00:52:04;9.52;;;8.63;;
74102;SDS011;62853;46.166;3.640;2023-06-10T00:54:31;10.30;;;9.00;;
74102;SDS011;62853;46.166;3.640;2023-06-10T00:57:00;11.88;;;8.80;;
74102;SDS011;62853;46.166;3.640;2023-06-10T00:59:25;10.32;;;9.30;;
74102;SDS011;62853;46.166;3.640;2023-06-10T01:01:51;10.75;;;8.90;;
74102;SDS011;62853;46.166;3.640;2023-06-10T01:04:17;10.38;;;9.18;;
74102;SDS011;62853;46.166;3.640;2023-06-10T01:06:50;10.60;;;9.38;;
74102;SDS011;62853;46.166;3.640;2023-06-10T01:09:45;12.80;;;8.88;;
74102;SDS011;62853;46.166;3.640;2023-06-10T01:12:26;9.93;;;8.90;;
74102;SDS011;62853;46.166;3.640;2023-06-10T01:14:59;10.00;;;8.70;;
74102;SDS011;62853;46.166;3.640;2023-06-10T01:17:25;10.23;;;9.00;;
74102;SDS011;62853;46.166;3.640;2023-06-10T01:19:55;13.00;;;9.30;;
74102;SDS011;62853;46.166;3.640;2023-06-10T01:22:22;11.77;;;8.98;;
74102;SDS011;62853;46.166;3.640;2023-06-10T01:24:48;10.15;;;9.00;;
74102;SDS011;62853;46.166;3.640;2023-06-10T01:27:15;10.52;;;9.43;;
74102;SDS011;62853;46.166;3.640;2023-06-10T01:29:45;11.52;;;9.60;;
74102;SDS011;62853;46.166;3.640;2023-06-10T01:32:22;9.95;;;8.95;;
74102;SDS011;62853;46.166;3.640;2023-06-10T01:34:50;9.82;;;8.93;;
74102;SDS011;62853;46.166;3.640;2023-06-10T01:37:17;13.73;;;9.50;;
74102;SDS011;62853;46.166;3.640;2023-06-10T01:39:45;10.40;;;9.40;;
74102;SDS011;62853;46.166;3.640;2023-06-10T01:42:12;11.15;;;10.02;;
74102;SDS011;62853;46.166;3.640;2023-06-10T01:44:38;11.23;;;9.43;;
74102;SDS011;62853;46.166;3.640;2023-06-10T01:47:04;12.75;;;10.40;;
74102;SDS011;62853;46.166;3.640;2023-06-10T01:49:30;11.18;;;10.07;;
74102;SDS011;62853;46.166;3.640;2023-06-10T01:51:55;11.63;;;10.25;;
74102;SDS011;62853;46.166;3.640;2023-06-10T01:54:21;11.77;;;10.20;;
74102;SDS011;62853;46.166;3.640;2023-06-10T01:56:46;11.25;;;10.05;;
74102;SDS011;62853;46.166;3.640;2023-06-10T01:59:11;11.07;;;10.07;;
74102;SDS011;62853;46.166;3.640;2023-06-10T02:01:37;12.18;;;10.07;;
74102;SDS011;62853;46.166;3.640;2023-06-10T02:04:02;11.93;;;10.18;;
74102;SDS011;62853;46.166;3.640;2023-06-10T02:06:27;11.88;;;10.77;;
74102;SDS011;62853;46.166;3.640;2023-06-10T02:08:53;14.73;;;11.10;;
74102;SDS011;62853;46.166;3.640;2023-06-10T02:11:18;11.18;;;10.07;;
74102;SDS011;62853;46.166;3.640;2023-06-10T02:13:44;11.52;;;10.18;;
74102;SDS011;62853;46.166;3.640;2023-06-10T02:16:09;11.85;;;10.15;;
74102;SDS011;62853;46.166;3.640;2023-06-10T02:18:37;14.57;;;11.05;;
74102;SDS011;62853;46.166;3.640;2023-06-10T02:21:05;11.88;;;10.63;;
74102;SDS011;62853;46.166;3.640;2023-06-10T02:23:31;12.90;;;10.80;;
74102;SDS011;62853;46.166;3.640;2023-06-10T02:25:57;11.93;;;10.55;;
74102;SDS011;62853;46.166;3.640;2023-06-10T02:28:22;12.68;;;11.13;;
74102;SDS011;62853;46.166;3.640;2023-06-10T02:30:47;11.98;;;10.88;;
74102;SDS011;62853;46.166;3.640;2023-06-10T02:33:13;11.45;;;10.25;;
74102;SDS011;62853;46.166;3.640;2023-06-10T02:35:39;11.30;;;10.13;;
74102;SDS011;62853;46.166;3.640;2023-06-10T02:38:05;12.25;;;11.07;;
74102;SDS011;62853;46.166;3.640;2023-06-10T02:40:30;12.45;;;10.15;;
74102;SDS011;62853;46.166;3.640;2023-06-10T02:42:56;11.90;;;10.63;;
74102;SDS011;62853;46.166;3.640;2023-06-10T02:45:22;11.68;;;10.60;;
74102;SDS011;62853;46.166;3.640;2023-06-10T02:47:47;11.98;;;10.40;;
74102;SDS011;62853;46.166;3.640;2023-06-10T02:50:13;13.88;;;10.48;;
74102;SDS011;62853;46.166;3.640;2023-06-10T02:52:38;10.90;;;9.88;;
74102;SDS011;62853;46.166;3.640;2023-06-10T02:55:03;10.93;;;9.90;;
74102;SDS011;62853;46.166;3.640;2023-06-10T02:57:30;12.40;;;10.63;;
74102;SDS011;62853;46.166;3.640;2023-06-10T02:59:55;12.05;;;10.18;;
74102;SDS011;62853;46.166;3.640;2023-06-10T03:02:21;11.48;;;10.32;;
74102;SDS011;62853;46.166;3.640;2023-06-10T03:04:47;14.35;;;10.68;;
74102;SDS011;62853;46.166;3.640;2023-06-10T03:07:12;11.55;;;10.23;;
74102;SDS011;62853;46.166;3.640;2023-06-10T03:09:39;13.55;;;11.02;;
74102;SDS011;62853;46.166;3.640;2023-06-10T03:12:04;11.98;;;10.80;;
74102;SDS011;62853;46.166;3.640;2023-06-10T03:14:31;12.18;;;10.93;;
74102;SDS011;62853;46.166;3.640;2023-06-10T03:16:56;12.95;;;11.75;;
74102;SDS011;62853;46.166;3.640;2023-06-10T03:19:21;11.60;;;10.50;;
74102;SDS011;62853;46.166;3.640;2023-06-10T03:21:49;13.85;;;11.23;;
74102;SDS011;62853;46.166;3.640;2023-06-10T03:24:19;12.90;;;11.60;;
74102;SDS011;62853;46.166;3.640;2023-06-10T03:26:45;14.30;;;11.55;;
74102;SDS011;62853;46.166;3.640;2023-06-10T03:29:11;12.20;;;10.88;;
74102;SDS011;62853;46.166;3.640;2023-06-10T03:31:36;13.43;;;11.40;;
74102;SDS011;62853;46.166;3.640;2023-06-10T03:34:02;13.65;;;11.48;;
74102;SDS011;62853;46.166;3.640;2023-06-10T03:36:27;13.35;;;12.05;;
74102;SDS011;62853;46.166;3.640;2023-06-10T03:38:54;12.85;;;11.55;;
74102;SDS011;62853;46.166;3.640;2023-06-10T03:41:21;13.38;;;12.07;;
74102;SDS011;62853;46.166;3.640;2023-06-10T03:43:47;13.52;;;11.43;;
74102;SDS011;62853;46.166;3.640;2023-06-10T03:46:13;13.52;;;12.27;;
74102;SDS011;62853;46.166;3.640;2023-06-10T03:48:38;13.68;;;12.32;;
74102;SDS011;62853;46.166;3.640;2023-06-10T03:51:04;13.82;;;12.23;;
74102;SDS011;62853;46.166;3.640;2023-06-10T03:53:30;12.70;;;11.50;;
74102;SDS011;62853;46.166;3.640;2023-06-10T03:55:55;13.40;;;12.00;;
74102;SDS011;62853;46.166;3.640;2023-06-10T03:58:22;13.82;;;12.40;;
74102;SDS011;62853;46.166;3.640;2023-06-10T04:00:47;13.48;;;12.27;;
74102;SDS011;62853;46.166;3.640;2023-06-10T04:03:14;14.75;;;13.05;;
74102;SDS011;62853;46.166;3.640;2023-06-10T04:05:40;13.77;;;12.25;;
74102;SDS011;62853;46.166;3.640;2023-06-10T04:08:09;13.70;;;12.32;;
74102;SDS011;62853;46.166;3.640;2023-06-10T04:10:34;14.20;;;12.82;;
74102;SDS011;62853;46.166;3.640;2023-06-10T04:13:00;15.20;;;13.63;;
74102;SDS011;62853;46.166;3.640;2023-06-10T04:15:25;14.15;;;12.75;;
74102;SDS011;62853;46.166;3.640;2023-06-10T04:17:51;14.45;;;12.95;;
74102;SDS011;62853;46.166;3.640;2023-06-10T04:20:17;16.05;;;13.75;;
74102;SDS011;62853;46.166;3.640;2023-06-10T04:22:43;18.80;;;13.60;;
74102;SDS011;62853;46.166;3.640;2023-06-10T04:25:09;16.25;;;14.57;;
74102;SDS011;62853;46.166;3.640;2023-06-10T04:27:35;15.43;;;13.75;;
74102;SDS011;62853;46.166;3.640;2023-06-10T04:30:00;15.32;;;13.82;;
74102;SDS011;62853;46.166;3.640;2023-06-10T04:32:26;15.48;;;13.88;;
74102;SDS011;62853;46.166;3.640;2023-06-10T04:34:52;15.50;;;14.02;;
74102;SDS011;62853;46.166;3.640;2023-06-10T04:37:17;17.77;;;14.25;;
74102;SDS011;62853;46.166;3.640;2023-06-10T04:39:43;14.48;;;13.15;;
74102;SDS011;62853;46.166;3.640;2023-06-10T04:42:08;16.33;;;14.73;;
74102;SDS011;62853;46.166;3.640;2023-06-10T04:44:33;15.77;;;14.15;;
74102;SDS011;62853;46.166;3.640;2023-06-10T04:46:59;17.95;;;14.35;;
74102;SDS011;62853;46.166;3.640;2023-06-10T04:49:24;15.45;;;13.90;;
74102;SDS011;62853;46.166;3.640;2023-06-10T04:51:49;16.45;;;14.75;;
74102;SDS011;62853;46.166;3.640;2023-06-10T04:54:16;16.75;;;15.02;;
74102;SDS011;62853;46.166;3.640;2023-06-10T04:56:42;16.55;;;14.70;;
74102;SDS011;62853;46.166;3.640;2023-06-10T04:59:07;16.27;;;14.48;;
74102;SDS011;62853;46.166;3.640;2023-06-10T05:01:32;16.02;;;14.40;;
74102;SDS011;62853;46.166;3.640;2023-06-10T05:03:58;23.15;;;15.05;;
74102;SDS011;62853;46.166;3.640;2023-06-10T05:06:23;16.35;;;14.77;;
74102;SDS011;62853;46.166;3.640;2023-06-10T05:08:49;17.13;;;15.07;;
74102;SDS011;62853;46.166;3.640;2023-06-10T05:11:14;16.00;;;14.38;;
74102;SDS011;62853;46.166;3.640;2023-06-10T05:13:41;16.40;;;14.80;;
74102;SDS011;62853;46.166;3.640;2023-06-10T05:16:06;16.48;;;14.98;;
74102;SDS011;62853;46.166;3.640;2023-06-10T05:18:32;16.67;;;14.98;;
74102;SDS011;62853;46.166;3.640;2023-06-10T05:20:58;16.27;;;14.77;;
74102;SDS011;62853;46.166;3.640;2023-06-10T05:23:23;18.75;;;16.08;;
74102;SDS011;62853;46.166;3.640;2023-06-10T05:25:49;16.92;;;14.88;;
74102;SDS011;62853;46.166;3.640;2023-06-10T05:28:14;18.60;;;15.32;;
74102;SDS011;62853;46.166;3.640;2023-06-10T05:30:40;16.70;;;15.20;;
74102;SDS011;62853;46.166;3.640;2023-06-10T05:33:05;17.92;;;15.75;;
74102;SDS011;62853;46.166;3.640;2023-06-10T05:35:30;17.67;;;15.85;;
74102;SDS011;62853;46.166;3.640;2023-06-10T05:37:56;17.83;;;16.02;;
74102;SDS011;62853;46.166;3.640;2023-06-10T05:40:22;17.20;;;15.43;;
74102;SDS011;62853;46.166;3.640;2023-06-10T05:42:47;17.60;;;15.90;;
74102;SDS011;62853;46.166;3.640;2023-06-10T05:45:12;16.42;;;14.80;;
74102;SDS011;62853;46.166;3.640;2023-06-10T05:47:38;16.83;;;14.45;;
74102;SDS011;62853;46.166;3.640;2023-06-10T05:50:04;16.55;;;14.98;;
74102;SDS011;62853;46.166;3.640;2023-06-10T05:52:32;16.55;;;15.05;;
74102;SDS011;62853;46.166;3.640;2023-06-10T05:54:58;15.82;;;13.75;;
74102;SDS011;62853;46.166;3.640;2023-06-10T05:57:24;15.30;;;13.80;;
74102;SDS011;62853;46.166;3.640;2023-06-10T05:59:50;15.55;;;13.98;;
74102;SDS011;62853;46.166;3.640;2023-06-10T06:02:15;15.10;;;13.70;;
74102;SDS011;62853;46.166;3.640;2023-06-10T06:04:41;15.05;;;13.55;;
74102;SDS011;62853;46.166;3.640;2023-06-10T06:07:07;15.75;;;13.85;;
74102;SDS011;62853;46.166;3.640;2023-06-10T06:09:32;15.90;;;14.05;;
74102;SDS011;62853;46.166;3.640;2023-06-10T06:11:58;16.20;;;14.50;;
74102;SDS011;62853;46.166;3.640;2023-06-10T06:14:23;15.02;;;13.50;;
74102;SDS011;62853;46.166;3.640;2023-06-10T06:16:48;15.85;;;14.25;;
74102;SDS011;62853;46.166;3.640;2023-06-10T06:19:14;16.30;;;13.60;;
74102;SDS011;62853;46.166;3.640;2023-06-10T06:21:40;16.60;;;13.77;;
74102;SDS011;62853;46.166;3.640;2023-06-10T06:24:06;16.02;;;14.35;;
74102;SDS011;62853;46.166;3.640;2023-06-10T06:26:31;15.75;;;14.18;;
74102;SDS011;62853;46.166;3.640;2023-06-10T06:28:57;18.35;;;14.40;;
74102;SDS011;62853;46.166;3.640;2023-06-10T06:31:22;16.85;;;15.15;;
74102;SDS011;62853;46.166;3.640;2023-06-10T06:33:48;15.57;;;13.98;;
74102;SDS011;62853;46.166;3.640;2023-06-10T06:36:13;15.80;;;14.18;;
74102;SDS011;62853;46.166;3.640;2023-06-10T06:38:38;14.98;;;13.38;;
74102;SDS011;62853;46.166;3.640;2023-06-10T06:41:04;16.27;;;13.90;;
74102;SDS011;62853;46.166;3.640;2023-06-10T06:43:31;16.10;;;14.48;;
74102;SDS011;62853;46.166;3.640;2023-06-10T06:45:57;18.95;;;13.95;;
74102;SDS011;62853;46.166;3.640;2023-06-10T06:48:23;15.38;;;13.88;;
74102;SDS011;62853;46.166;3.640;2023-06-10T06:50:48;15.30;;;13.57;;
74102;SDS011;62853;46.166;3.640;2023-06-10T06:53:14;16.58;;;14.05;;
74102;SDS011;62853;46.166;3.640;2023-06-10T06:55:39;15.27;;;13.68;;
74102;SDS011;62853;46.166;3.640;2023-06-10T06:58:05;17.50;;;14.00;;
74102;SDS011;62853;46.166;3.640;2023-06-10T07:00:30;15.30;;;13.73;;
74102;SDS011;62853;46.166;3.640;2023-06-10T07:02:56;15.95;;;14.38;;
74102;SDS011;62853;46.166;3.640;2023-06-10T07:05:22;14.80;;;13.30;;
74102;SDS011;62853;46.166;3.640;2023-06-10T07:07:48;14.55;;;13.05;;
74102;SDS011;62853;46.166;3.640;2023-06-10T07:10:19;15.33;;;13.27;;
74102;SDS011;62853;46.166;3.640;2023-06-10T07:12:46;13.52;;;12.20;;
74102;SDS011;62853;46.166;3.640;2023-06-10T07:15:12;13.95;;;12.45;;
74102;SDS011;62853;46.166;3.640;2023-06-10T07:17:37;13.50;;;11.52;;
74102;SDS011;62853;46.166;3.640;2023-06-10T07:20:03;14.45;;;11.45;;
74102;SDS011;62853;46.166;3.640;2023-06-10T07:22:29;14.35;;;11.82;;
74102;SDS011;62853;46.166;3.640;2023-06-10T07:24:54;22.63;;;11.40;;
74102;SDS011;62853;46.166;3.640;2023-06-10T07:27:20;12.48;;;11.25;;
74102;SDS011;62853;46.166;3.640;2023-06-10T07:29:45;11.77;;;10.63;;
74102;SDS011;62853;46.166;3.640;2023-06-10T07:32:11;13.45;;;11.23;;
74102;SDS011;62853;46.166;3.640;2023-06-10T07:34:36;11.63;;;10.27;;
74102;SDS011;62853;46.166;3.640;2023-06-10T07:37:02;13.88;;;9.95;;
74102;SDS011;62853;46.166;3.640;2023-06-10T07:39:27;10.70;;;9.70;;
74102;SDS011;62853;46.166;3.640;2023-06-10T07:41:52;14.00;;;10.00;;
74102;SDS011;62853;46.166;3.640;2023-06-10T07:44:19;11.23;;;9.48;;
74102;SDS011;62853;46.166;3.640;2023-06-10T07:46:44;20.92;;;10.07;;
74102;SDS011;62853;46.166;3.640;2023-06-10T07:49:10;11.63;;;8.80;;
74102;SDS011;62853;46.166;3.640;2023-06-10T07:51:35;9.60;;;8.25;;
74102;SDS011;62853;46.166;3.640;2023-06-10T07:54:01;10.63;;;8.90;;
74102;SDS011;62853;46.166;3.640;2023-06-10T07:56:27;9.73;;;8.60;;
74102;SDS011;62853;46.166;3.640;2023-06-10T07:58:52;8.90;;;7.95;;
74102;SDS011;62853;46.166;3.640;2023-06-10T08:01:18;9.70;;;8.70;;
74102;SDS011;62853;46.166;3.640;2023-06-10T08:03:43;10.52;;;8.32;;
74102;SDS011;62853;46.166;3.640;2023-06-10T08:06:08;10.60;;;8.50;;
74102;SDS011;62853;46.166;3.640;2023-06-10T08:08:36;10.63;;;8.68;;
74102;SDS011;62853;46.166;3.640;2023-06-10T08:11:06;10.43;;;8.40;;
74102;SDS011;62853;46.166;3.640;2023-06-10T08:13:32;8.98;;;8.00;;
74102;SDS011;62853;46.166;3.640;2023-06-10T08:15:57;11.32;;;7.80;;
74102;SDS011;62853;46.166;3.640;2023-06-10T08:18:23;8.27;;;7.43;;
74102;SDS011;62853;46.166;3.640;2023-06-10T08:20:48;10.57;;;7.45;;
74102;SDS011;62853;46.166;3.640;2023-06-10T08:23:14;9.02;;;7.45;;
74102;SDS011;62853;46.166;3.640;2023-06-10T08:25:39;8.15;;;6.93;;
74102;SDS011;62853;46.166;3.640;2023-06-10T08:28:05;10.05;;;6.57;;
74102;SDS011;62853;46.166;3.640;2023-06-10T08:30:30;8.23;;;6.57;;
74102;SDS011;62853;46.166;3.640;2023-06-10T08:32:56;8.00;;;7.25;;
74102;SDS011;62853;46.166;3.640;2023-06-10T08:35:21;7.65;;;6.60;;
74102;SDS011;62853;46.166;3.640;2023-06-10T08:37:47;7.63;;;6.70;;
74102;SDS011;62853;46.166;3.640;2023-06-10T08:40:12;8.05;;;6.55;;
74102;SDS011;62853;46.166;3.640;2023-06-10T08:45:25;6.97;;;6.32;;
74102;SDS011;62853;46.166;3.640;2023-06-10T08:48:00;7.93;;;7.13;;
74102;SDS011;62853;46.166;3.640;2023-06-10T08:50:28;7.97;;;7.15;;
74102;SDS011;62853;46.166;3.640;2023-06-10T08:52:56;7.82;;;7.03;;
74102;SDS011;62853;46.166;3.640;2023-06-10T08:55:23;8.20;;;6.60;;
74102;SDS011;62853;46.166;3.640;2023-06-10T08:57:57;7.63;;;6.90;;
74102;SDS011;62853;46.166;3.640;2023-06-10T09:00:24;7.93;;;6.68;;
74102;SDS011;62853;46.166;3.640;2023-06-10T09:02:50;7.10;;;6.45;;
74102;SDS011;62853;46.166;3.640;2023-06-10T09:05:16;7.88;;;6.63;;
74102;SDS011;62853;46.166;3.640;2023-06-10T09:07:42;9.48;;;6.50;;
74102;SDS011;62853;46.166;3.640;2023-06-10T09:10:09;7.07;;;6.38;;
74102;SDS011;62853;46.166;3.640;2023-06-10T09:12:35;8.98;;;6.60;;
74102;SDS011;62853;46.166;3.640;2023-06-10T09:15:03;9.45;;;6.72;;
74102;SDS011;62853;46.166;3.640;2023-06-10T09:17:29;7.78;;;6.93;;
74102;SDS011;62853;46.166;3.640;2023-06-10T09:19:54;9.90;;;6.63;;
74102;SDS011;62853;46.166;3.640;2023-06-10T09:22:22;9.25;;;7.13;;
74102;SDS011;62853;46.166;3.640;2023-06-10T09:24:48;9.32;;;7.35;;
74102;SDS011;62853;46.166;3.640;2023-06-10T09:27:13;7.68;;;6.97;;
74102;SDS011;62853;46.166;3.640;2023-06-10T09:29:51;11.70;;;7.10;;
74102;SDS011;62853;46.166;3.640;2023-06-10T09:32:18;9.27;;;7.10;;
74102;SDS011;62853;46.166;3.640;2023-06-10T09:34:44;7.88;;;7.05;;
74102;SDS011;62853;46.166;3.640;2023-06-10T09:37:10;7.80;;;7.00;;
74102;SDS011;62853;46.166;3.640;2023-06-10T09:39:38;7.18;;;6.47;;
74102;SDS011;62853;46.166;3.640;2023-06-10T09:42:25;10.82;;;7.13;;
74102;SDS011;62853;46.166;3.640;2023-06-10T09:44:50;9.60;;;6.70;;
74102;SDS011;62853;46.166;3.640;2023-06-10T09:47:20;8.23;;;6.93;;
74102;SDS011;62853;46.166;3.640;2023-06-10T09:49:47;10.70;;;6.68;;
74102;SDS011;62853;46.166;3.640;2023-06-10T09:52:25;18.20;;;6.60;;
74102;SDS011;62853;46.166;3.640;2023-06-10T09:54:52;9.38;;;6.88;;
74102;SDS011;62853;46.166;3.640;2023-06-10T09:57:19;7.65;;;6.55;;
74102;SDS011;62853;46.166;3.640;2023-06-10T09:59:46;9.02;;;6.45;;
74102;SDS011;62853;46.166;3.640;2023-06-10T10:02:15;9.10;;;6.40;;
74102;SDS011;62853;46.166;3.640;2023-06-10T10:04:41;9.13;;;7.25;;
74102;SDS011;62853;46.166;3.640;2023-06-10T10:07:07;7.18;;;6.20;;
74102;SDS011;62853;46.166;3.640;2023-06-10T10:09:33;9.32;;;6.53;;
74102;SDS011;62853;46.166;3.640;2023-06-10T10:12:01;8.30;;;6.50;;
74102;SDS011;62853;46.166;3.640;2023-06-10T10:14:28;7.38;;;6.22;;
74102;SDS011;62853;46.166;3.640;2023-06-10T10:16:56;7.85;;;6.63;;
74102;SDS011;62853;46.166;3.640;2023-06-10T10:19:28;6.28;;;5.72;;
74102;SDS011;62853;46.166;3.640;2023-06-10T10:22:04;7.60;;;6.40;;
74102;SDS011;62853;46.166;3.640;2023-06-10T10:24:36;7.63;;;6.80;;
74102;SDS011;62853;46.166;3.640;2023-06-10T10:27:07;8.63;;;5.90;;
74102;SDS011;62853;46.166;3.640;2023-06-10T10:29:42;10.32;;;6.72;;
74102;SDS011;62853;46.166;3.640;2023-06-10T10:32:11;11.93;;;5.82;;
74102;SDS011;62853;46.166;3.640;2023-06-10T10:34:42;6.97;;;6.13;;
74102;SDS011;62853;46.166;3.640;2023-06-10T10:37:10;8.63;;;6.30;;
74102;SDS011;62853;46.166;3.640;2023-06-10T10:39:35;10.95;;;6.07;;
74102;SDS011;62853;46.166;3.640;2023-06-10T10:42:01;7.03;;;6.07;;
74102;SDS011;62853;46.166;3.640;2023-06-10T10:44:29;8.25;;;6.18;;
74102;SDS011;62853;46.166;3.640;2023-06-10T10:46:55;7.93;;;6.43;;
74102;SDS011;62853;46.166;3.640;2023-06-10T10:49:21;8.82;;;6.10;;
74102;SDS011;62853;46.166;3.640;2023-06-10T10:51:59;11.13;;;6.47;;
74102;SDS011;62853;46.166;3.640;2023-06-10T10:57:10;6.90;;;6.03;;
74102;SDS011;62853;46.166;3.640;2023-06-10T10:59:44;8.65;;;6.00;;
74102;SDS011;62853;46.166;3.640;2023-06-10T11:02:40;8.13;;;6.30;;
74102;SDS011;62853;46.166;3.640;2023-06-10T11:05:11;7.00;;;6.05;;
74102;SDS011;62853;46.166;3.640;2023-06-10T11:07:38;8.07;;;6.25;;
74102;SDS011;62853;46.166;3.640;2023-06-10T11:10:10;8.57;;;7.07;;
74102;SDS011;62853;46.166;3.640;2023-06-10T11:12:55;7.38;;;6.57;;
74102;SDS011;62853;46.166;3.640;2023-06-10T11:15:23;7.88;;;6.22;;
74102;SDS011;62853;46.166;3.640;2023-06-10T11:20:44;6.88;;;6.10;;
74102;SDS011;62853;46.166;3.640;2023-06-10T11:28:37;7.45;;;6.35;;
74102;SDS011;62853;46.166;3.640;2023-06-10T11:31:06;8.02;;;6.72;;
74102;SDS011;62853;46.166;3.640;2023-06-10T11:33:32;7.07;;;6.25;;
74102;SDS011;62853;46.166;3.640;2023-06-10T11:35:57;8.80;;;6.85;;
74102;SDS011;62853;46.166;3.640;2023-06-10T11:38:24;8.88;;;6.38;;
74102;SDS011;62853;46.166;3.640;2023-06-10T11:40:50;13.80;;;6.43;;
74102;SDS011;62853;46.166;3.640;2023-06-10T11:43:19;7.35;;;6.70;;
74102;SDS011;62853;46.166;3.640;2023-06-10T11:45:45;9.02;;;6.63;;
74102;SDS011;62853;46.166;3.640;2023-06-10T11:48:11;9.77;;;6.65;;
74102;SDS011;62853;46.166;3.640;2023-06-10T11:50:38;8.15;;;6.70;;
74102;SDS011;62853;46.166;3.640;2023-06-10T11:53:03;9.32;;;7.07;;
74102;SDS011;62853;46.166;3.640;2023-06-10T11:58:15;10.68;;;6.70;;
74102;SDS011;62853;46.166;3.640;2023-06-10T12:00:44;8.00;;;6.18;;
74102;SDS011;62853;46.166;3.640;2023-06-10T12:03:10;7.03;;;6.32;;
74102;SDS011;62853;46.166;3.640;2023-06-10T12:05:35;7.07;;;6.38;;
74102;SDS011;62853;46.166;3.640;2023-06-10T12:08:10;9.52;;;6.82;;
74102;SDS011;62853;46.166;3.640;2023-06-10T12:10:43;8.50;;;6.50;;
74102;SDS011;62853;46.166;3.640;2023-06-10T12:15:34;7.10;;;6.15;;
74102;SDS011;62853;46.166;3.640;2023-06-10T12:18:00;11.05;;;6.57;;
74102;SDS011;62853;46.166;3.640;2023-06-10T12:20:27;8.52;;;6.32;;
74102;SDS011;62853;46.166;3.640;2023-06-10T12:22:59;7.03;;;6.32;;
74102;SDS011;62853;46.166;3.640;2023-06-10T12:25:27;7.72;;;6.18;;
74102;SDS011;62853;46.166;3.640;2023-06-10T12:27:54;6.75;;;5.95;;
74102;SDS011;62853;46.166;3.640;2023-06-10T12:30:21;6.93;;;6.32;;
74102;SDS011;62853;46.166;3.640;2023-06-10T12:32:49;6.93;;;6.22;;
74102;SDS011;62853;46.166;3.640;2023-06-10T12:35:16;6.20;;;5.60;;
74102;SDS011;62853;46.166;3.640;2023-06-10T12:37:54;13.55;;;6.55;;
74102;SDS011;62853;46.166;3.640;2023-06-10T12:40:26;8.00;;;6.25;;
74102;SDS011;62853;46.166;3.640;2023-06-10T12:42:58;7.93;;;6.20;;
74102;SDS011;62853;46.166;3.640;2023-06-10T12:45:30;7.97;;;6.57;;
74102;SDS011;62853;46.166;3.640;2023-06-10T12:50:43;8.35;;;6.53;;
74102;SDS011;62853;46.166;3.640;2023-06-10T12:53:17;9.75;;;6.43;;
74102;SDS011;62853;46.166;3.640;2023-06-10T12:55:43;8.05;;;6.05;;
74102;SDS011;62853;46.166;3.640;2023-06-10T12:58:10;8.15;;;5.93;;
74102;SDS011;62853;46.166;3.640;2023-06-10T13:00:36;7.72;;;5.60;;
74102;SDS011;62853;46.166;3.640;2023-06-10T13:03:05;8.63;;;6.20;;
74102;SDS011;62853;46.166;3.640;2023-06-10T13:05:31;8.27;;;5.82;;
74102;SDS011;62853;46.166;3.640;2023-06-10T13:07:57;11.82;;;6.22;;
74102;SDS011;62853;46.166;3.640;2023-06-10T13:10:24;9.05;;;6.72;;
74102;SDS011;62853;46.166;3.640;2023-06-10T13:12:49;7.25;;;6.55;;
74102;SDS011;62853;46.166;3.640;2023-06-10T13:15:15;7.90;;;6.07;;
74102;SDS011;62853;46.166;3.640;2023-06-10T13:17:49;8.38;;;5.80;;
74102;SDS011;62853;46.166;3.640;2023-06-10T13:20:16;7.03;;;6.18;;
74102;SDS011;62853;46.166;3.640;2023-06-10T13:22:42;6.47;;;5.80;;
74102;SDS011;62853;46.166;3.640;2023-06-10T13:25:08;7.50;;;6.38;;
74102;SDS011;62853;46.166;3.640;2023-06-10T13:27:36;8.23;;;6.85;;
74102;SDS011;62853;46.166;3.640;2023-06-10T13:30:06;9.13;;;6.60;;
74102;SDS011;62853;46.166;3.640;2023-06-10T13:32:33;8.23;;;6.43;;
74102;SDS011;62853;46.166;3.640;2023-06-10T13:34:59;8.63;;;6.57;;
74102;SDS011;62853;46.166;3.640;2023-06-10T13:37:25;8.02;;;6.53;;
74102;SDS011;62853;46.166;3.640;2023-06-10T13:39:51;7.00;;;6.28;;
74102;SDS011;62853;46.166;3.640;2023-06-10T13:42:19;9.10;;;5.90;;
74102;SDS011;62853;46.166;3.640;2023-06-10T13:44:45;7.22;;;6.53;;
74102;SDS011;62853;46.166;3.640;2023-06-10T13:47:12;7.95;;;6.22;;
74102;SDS011;62853;46.166;3.640;2023-06-10T13:49:38;9.35;;;6.38;;
74102;SDS011;62853;46.166;3.640;2023-06-10T13:52:05;6.22;;;5.55;;
74102;SDS011;62853;46.166;3.640;2023-06-10T13:54:31;6.78;;;6.00;;
74102;SDS011;62853;46.166;3.640;2023-06-10T13:56:56;6.95;;;6.10;;
74102;SDS011;62853;46.166;3.640;2023-06-10T13:59:21;6.95;;;6.25;;
74102;SDS011;62853;46.166;3.640;2023-06-10T14:01:47;6.93;;;6.22;;
74102;SDS011;62853;46.166;3.640;2023-06-10T14:04:13;6.35;;;5.75;;
74102;SDS011;62853;46.166;3.640;2023-06-10T14:06:38;9.60;;;6.22;;
74102;SDS011;62853;46.166;3.640;2023-06-10T14:09:04;8.45;;;6.55;;
74102;SDS011;62853;46.166;3.640;2023-06-10T14:11:32;7.72;;;6.28;;
74102;SDS011;62853;46.166;3.640;2023-06-10T14:13:58;7.00;;;6.20;;
74102;SDS011;62853;46.166;3.640;2023-06-10T14:16:23;7.68;;;6.05;;
74102;SDS011;62853;46.166;3.640;2023-06-10T14:18:51;9.32;;;6.45;;
74102;SDS011;62853;46.166;3.640;2023-06-10T14:21:17;7.00;;;6.30;;
74102;SDS011;62853;46.166;3.640;2023-06-10T14:23:43;7.43;;;6.20;;
74102;SDS011;62853;46.166;3.640;2023-06-10T14:26:11;7.97;;;6.13;;
74102;SDS011;62853;46.166;3.640;2023-06-10T14:28:39;8.52;;;6.40;;
74102;SDS011;62853;46.166;3.640;2023-06-10T14:31:05;8.13;;;6.20;;
74102;SDS011;62853;46.166;3.640;2023-06-10T14:33:30;9.32;;;6.57;;
74102;SDS011;62853;46.166;3.640;2023-06-10T14:35:56;7.85;;;6.38;;
74102;SDS011;62853;46.166;3.640;2023-06-10T14:38:22;7.38;;;6.40;;
74102;SDS011;62853;46.166;3.640;2023-06-10T14:40:48;7.22;;;6.53;;
74102;SDS011;62853;46.166;3.640;2023-06-10T14:43:13;6.95;;;6.25;;
74102;SDS011;62853;46.166;3.640;2023-06-10T14:45:39;7.97;;;6.70;;
74102;SDS011;62853;46.166;3.640;2023-06-10T14:48:05;13.27;;;6.75;;
74102;SDS011;62853;46.166;3.640;2023-06-10T14:50:37;6.88;;;6.28;;
74102;SDS011;62853;46.166;3.640;2023-06-10T14:53:03;8.50;;;6.65;;
74102;SDS011;62853;46.166;3.640;2023-06-10T14:55:29;7.60;;;6.80;;